createdAt,value
2022-09-05T00:02:02.072Z,1.80
2022-09-05T00:04:32.011Z,1.80
2022-09-05T00:07:38.774Z,1.90
2022-09-05T00:10:22.170Z,2.03
2022-09-05T00:12:51.265Z,1.90
2022-09-05T00:15:44.059Z,1.77
2022-09-05T00:23:31.977Z,2.37
2022-09-05T00:24:28.427Z,1.80
2022-09-05T00:25:31.709Z,1.70
2022-09-05T00:28:14.543Z,1.60
2022-09-05T00:31:07.421Z,1.63
2022-09-05T00:34:10.514Z,2.17
2022-09-05T00:36:47.429Z,1.70
2022-09-05T00:39:19.752Z,1.90
2022-09-05T00:41:51.798Z,2.53
2022-09-05T00:44:24.231Z,2.13
2022-09-05T00:47:07.610Z,1.80
2022-09-05T00:49:40.810Z,1.67
2022-09-05T00:52:14.626Z,1.83
2022-09-05T00:54:53.717Z,2.00
2022-09-05T00:57:36.023Z,1.80
2022-09-05T01:00:10.831Z,2.07
2022-09-05T01:02:51.860Z,2.30
2022-09-05T01:05:38.357Z,2.17
2022-09-05T01:08:42.512Z,2.20
2022-09-05T01:11:47.304Z,2.00
2022-09-05T01:14:26.544Z,2.10
2022-09-05T01:17:17.875Z,1.50
2022-09-05T01:20:19.477Z,1.90
2022-09-05T01:22:59.147Z,1.83
2022-09-05T01:25:34.205Z,2.00
2022-09-05T01:29:15.524Z,1.73
2022-09-05T01:31:21.237Z,1.87
2022-09-05T01:34:31.950Z,1.70
2022-09-05T01:37:32.907Z,1.90
2022-09-05T01:40:17.248Z,1.70
2022-09-05T01:43:25.800Z,2.00
2022-09-05T01:46:15.684Z,2.10
2022-09-05T01:48:48.502Z,1.90
2022-09-05T01:51:29.189Z,1.67
2022-09-05T01:54:24.397Z,2.03
2022-09-05T01:57:21.409Z,1.80
2022-09-05T01:59:55.415Z,1.87
2022-09-05T02:02:36.703Z,2.20
2022-09-05T02:05:48.883Z,2.10
2022-09-05T02:08:16.378Z,1.90
2022-09-05T02:11:06.264Z,2.20
2022-09-05T02:13:36.209Z,1.77
2022-09-05T02:16:20.947Z,1.60
2022-09-05T02:19:06.639Z,1.80
2022-09-05T02:21:33.479Z,1.70
2022-09-05T02:24:30.564Z,1.83
2022-09-05T02:27:30.237Z,1.90
2022-09-05T02:30:08.323Z,1.97
2022-09-05T02:33:10.415Z,1.77
2022-09-05T02:35:45.954Z,1.97
2022-09-05T02:40:27.818Z,1.73
2022-09-05T02:45:12.505Z,1.93
2022-09-05T02:45:19.432Z,1.63
2022-09-05T02:47:40.423Z,1.90
2022-09-05T02:52:43.886Z,2.07
2022-09-05T02:57:32.960Z,1.70
2022-09-05T02:58:04.011Z,1.73
2022-09-05T02:59:35.916Z,1.97
2022-09-05T03:02:42.082Z,1.80
2022-09-05T03:05:10.531Z,1.80
2022-09-05T03:08:04.599Z,2.00
2022-09-05T03:10:54.592Z,1.90
2022-09-05T03:14:03.508Z,1.70
2022-09-05T03:16:38.596Z,1.60
2022-09-05T03:19:52.303Z,1.87
2022-09-05T03:22:41.001Z,2.00
2022-09-05T03:25:20.462Z,1.70
2022-09-05T03:28:15.203Z,1.70
2022-09-05T03:31:07.420Z,1.70
2022-09-05T03:34:02.457Z,2.00
2022-09-05T03:36:56.655Z,1.70
2022-09-05T03:39:32.473Z,1.67
2022-09-05T03:42:30.796Z,1.80
2022-09-05T03:45:05.522Z,1.80
2022-09-05T03:47:50.979Z,1.70
2022-09-05T03:57:05.747Z,2.10
2022-09-05T03:57:10.481Z,1.70
2022-09-05T03:57:17.337Z,1.60
2022-09-05T04:00:09.189Z,1.60
2022-09-05T04:08:09.353Z,2.50
2022-09-05T04:08:17.044Z,1.83
2022-09-05T04:08:43.289Z,2.10
2022-09-05T04:11:16.645Z,1.83
2022-09-05T04:13:59.563Z,1.80
2022-09-05T04:16:46.929Z,2.10
2022-09-05T04:19:31.951Z,1.90
2022-09-05T04:22:20.403Z,2.27
2022-09-05T04:25:04.868Z,1.97
2022-09-05T04:27:51.468Z,1.70
2022-09-05T04:30:43.394Z,1.80
2022-09-05T04:33:40.122Z,2.40
2022-09-05T04:36:18.339Z,1.87
2022-09-05T04:38:46.437Z,1.93
2022-09-05T04:41:16.435Z,1.77
2022-09-05T04:43:55.472Z,2.00
2022-09-05T04:46:48.237Z,1.90
2022-09-05T04:49:33.139Z,2.03
2022-09-05T04:52:02.781Z,2.10
2022-09-05T04:54:48.463Z,1.90
2022-09-05T04:57:44.530Z,2.00
2022-09-05T05:05:58.697Z,2.00
2022-09-05T05:06:08.226Z,2.00
2022-09-05T05:09:04.753Z,2.10
2022-09-05T05:15:56.603Z,1.90
2022-09-05T05:17:55.852Z,1.87
2022-09-05T05:18:36.464Z,1.90
2022-09-05T05:21:07.076Z,1.63
2022-09-05T05:23:38.849Z,2.10
2022-09-05T05:26:10.002Z,1.80
2022-09-05T05:28:50.962Z,2.30
2022-09-05T05:31:21.980Z,1.80
2022-09-05T05:33:51.163Z,1.70
2022-09-05T05:36:29.000Z,2.13
2022-09-05T05:39:08.486Z,1.90
2022-09-05T05:41:48.800Z,1.80
2022-09-05T05:44:22.313Z,1.80
2022-09-05T05:47:04.337Z,1.63
2022-09-05T05:49:42.817Z,2.03
2022-09-05T05:52:27.907Z,2.00
2022-09-05T05:55:50.764Z,1.80
2022-09-05T05:58:17.164Z,1.73
2022-09-05T06:01:21.916Z,1.93
2022-09-05T06:04:23.491Z,1.90
2022-09-05T06:07:02.344Z,1.70
2022-09-05T06:14:51.206Z,2.00
2022-09-05T06:14:56.909Z,1.90
2022-09-05T06:16:13.170Z,2.00
2022-09-05T06:19:12.485Z,2.00
2022-09-05T06:22:10.956Z,2.33
2022-09-05T06:24:54.395Z,1.90
2022-09-05T06:28:01.696Z,1.83
2022-09-05T06:30:26.726Z,2.17
2022-09-05T06:32:58.356Z,1.60
2022-09-05T06:35:31.588Z,1.97
2022-09-05T06:38:01.618Z,1.67
2022-09-05T06:40:32.030Z,2.07
2022-09-05T06:43:33.422Z,1.50
2022-09-05T06:46:03.346Z,1.80
2022-09-05T06:48:53.342Z,1.83
2022-09-05T06:52:09.759Z,1.97
2022-09-05T06:55:00.269Z,1.90
2022-09-05T06:57:54.577Z,1.70
2022-09-05T07:00:25.223Z,1.87
2022-09-05T07:03:10.199Z,2.00
2022-09-05T07:05:45.570Z,2.00
2022-09-05T07:08:36.593Z,1.60
2022-09-05T07:11:29.555Z,1.73
2022-09-05T07:14:16.504Z,2.30
2022-09-05T07:16:49.030Z,1.87
2022-09-05T07:19:26.069Z,1.90
2022-09-05T07:22:46.302Z,2.00
2022-09-05T07:25:18.217Z,2.03
2022-09-05T07:28:25.919Z,1.60
2022-09-05T07:31:04.422Z,2.23
2022-09-05T07:33:31.625Z,1.70
2022-09-05T07:36:06.893Z,1.80
2022-09-05T07:38:52.498Z,1.90
2022-09-05T07:41:30.592Z,2.33
2022-09-05T07:44:09.442Z,1.90
2022-09-05T07:46:39.260Z,1.80
2022-09-05T07:49:08.288Z,1.80
2022-09-05T07:56:55.289Z,2.10
2022-09-05T07:57:08.833Z,2.07
2022-09-05T07:57:31.398Z,1.90
2022-09-05T08:00:07.341Z,2.10
2022-09-05T08:02:54.583Z,1.67
2022-09-05T08:05:25.960Z,1.90
2022-09-05T08:08:03.994Z,2.10
2022-09-05T08:11:21.945Z,2.30
2022-09-05T08:13:27.081Z,1.83
2022-09-05T08:16:13.284Z,1.70
2022-09-05T08:18:51.793Z,1.87
2022-09-05T08:21:27.096Z,1.90
2022-09-05T08:24:14.439Z,1.87
2022-09-05T08:26:47.092Z,1.87
2022-09-05T08:29:35.543Z,1.73
2022-09-05T08:32:08.872Z,1.93
2022-09-05T08:34:46.588Z,1.97
2022-09-05T08:37:25.880Z,1.63
2022-09-05T08:40:09.654Z,1.70
2022-09-05T08:45:46.354Z,1.60
2022-09-05T08:46:43.803Z,1.77
2022-09-05T08:49:37.162Z,1.30
2022-09-05T08:52:27.766Z,1.77
2022-09-05T08:55:07.655Z,1.90
2022-09-05T08:57:47.034Z,1.30
2022-09-05T09:00:20.907Z,1.40
2022-09-05T09:02:57.242Z,1.77
2022-09-05T09:06:12.815Z,1.70
2022-09-05T09:08:46.175Z,1.20
2022-09-05T09:11:34.410Z,1.40
2022-09-05T09:14:30.444Z,1.27
2022-09-05T09:17:13.501Z,1.40
2022-09-05T09:19:52.262Z,1.50
2022-09-05T09:22:34.925Z,1.43
2022-09-05T09:25:15.055Z,1.47
2022-09-05T09:28:48.667Z,1.70
2022-09-05T09:31:17.154Z,1.30
2022-09-05T09:33:49.864Z,1.50
2022-09-05T09:36:42.288Z,1.30
2022-09-05T09:39:38.013Z,1.30
2022-09-05T09:42:09.228Z,1.30
2022-09-05T09:44:48.509Z,1.60
2022-09-05T09:47:22.329Z,1.67
2022-09-05T09:50:01.653Z,2.10
2022-09-05T09:52:40.472Z,1.60
2022-09-05T09:55:39.817Z,1.73
2022-09-05T09:58:13.688Z,1.60
2022-09-05T10:00:51.338Z,1.67
2022-09-05T10:10:23.312Z,1.17
2022-09-05T10:10:51.890Z,1.80
2022-09-05T10:10:52.851Z,1.87
2022-09-05T10:13:09.201Z,1.77
2022-09-05T10:15:39.644Z,1.63
2022-09-05T10:18:07.571Z,1.53
2022-09-05T10:20:53.908Z,2.13
2022-09-05T10:23:46.572Z,2.33
2022-09-05T10:26:22.512Z,1.50
2022-09-05T10:28:52.143Z,2.37
2022-09-05T10:32:14.973Z,1.40
2022-09-05T10:35:13.751Z,2.30
2022-09-05T10:37:11.020Z,2.30
2022-09-05T10:39:40.852Z,1.70
2022-09-05T10:42:15.726Z,1.97
2022-09-05T10:44:50.498Z,2.37
2022-09-05T10:47:30.465Z,2.60
2022-09-05T10:50:13.527Z,2.40
2022-09-05T10:53:09.932Z,2.87
2022-09-05T10:55:58.959Z,1.93
2022-09-05T11:01:27.626Z,1.70
2022-09-05T11:02:29.473Z,1.70
2022-09-05T11:04:49.835Z,1.60
2022-09-05T11:07:30.466Z,1.50
2022-09-05T11:10:04.933Z,1.77
2022-09-05T11:12:32.822Z,1.67
2022-09-05T11:15:02.585Z,1.80
2022-09-05T11:17:39.761Z,1.90
2022-09-05T11:20:22.516Z,1.70
2022-09-05T11:23:08.989Z,1.60
2022-09-05T11:25:40.669Z,2.73
2022-09-05T11:28:22.413Z,1.63
2022-09-05T11:30:53.469Z,2.27
2022-09-05T11:39:52.398Z,2.23
2022-09-05T11:39:55.069Z,1.80
2022-09-05T11:40:31.454Z,2.03
2022-09-05T11:43:43.105Z,1.70
2022-09-05T11:46:13.081Z,1.63
2022-09-05T11:49:24.368Z,1.60
2022-09-05T11:52:12.319Z,1.43
2022-09-05T11:55:20.722Z,1.67
2022-09-05T12:05:50.129Z,2.00
2022-09-05T12:08:00.721Z,2.40
2022-09-05T12:11:14.806Z,1.90
2022-09-05T12:14:21.028Z,2.07
2022-09-05T12:20:22.466Z,1.87
2022-09-05T12:23:06.247Z,2.40
2022-09-05T12:27:41.466Z,1.40
2022-09-05T12:33:32.267Z,1.50
2022-09-05T12:36:07.147Z,1.83
2022-09-05T12:40:54.149Z,1.60
2022-09-05T12:41:35.368Z,1.60
2022-09-05T12:41:37.361Z,2.23
2022-09-05T12:41:41.809Z,1.80
2022-09-05T12:42:10.985Z,1.70
2022-09-05T12:44:32.615Z,2.37
2022-09-05T12:46:48.632Z,1.70
2022-09-05T12:50:15.003Z,2.10
2022-09-05T12:52:59.890Z,1.87
2022-09-05T12:56:32.265Z,2.03
2022-09-05T13:02:56.002Z,2.30
2022-09-05T13:03:13.135Z,1.57
2022-09-05T13:05:02.824Z,1.57
2022-09-05T13:07:41.088Z,1.50
2022-09-05T13:13:26.124Z,1.70
2022-09-05T13:14:58.996Z,1.77
2022-09-05T13:16:03.527Z,1.53
2022-09-05T13:18:39.188Z,1.40
2022-09-05T13:21:27.204Z,1.40
2022-09-05T13:24:12.470Z,1.97
2022-09-05T13:26:47.536Z,1.90
2022-09-05T13:29:18.663Z,1.83
2022-09-05T13:37:55.424Z,1.57
2022-09-05T13:38:20.331Z,1.73
2022-09-05T14:01:09.566Z,2.20
2022-09-05T14:04:09.075Z,1.80
2022-09-05T14:07:43.939Z,2.03
2022-09-05T14:10:23.339Z,1.60
2022-09-05T14:13:04.422Z,1.60
2022-09-05T14:15:52.673Z,2.00
2022-09-05T14:18:30.153Z,1.83
2022-09-05T14:21:17.280Z,1.80
2022-09-05T14:23:53.671Z,1.80
2022-09-05T14:26:35.452Z,1.63
2022-09-05T14:29:20.644Z,2.00
2022-09-05T14:37:39.268Z,2.17
2022-09-05T14:37:50.982Z,1.77
2022-09-05T14:38:10.040Z,2.17
2022-09-05T14:41:12.617Z,2.07
2022-09-05T14:44:07.834Z,1.70
2022-09-05T14:47:06.941Z,2.00
2022-09-05T14:49:59.196Z,1.80
2022-09-05T14:52:28.677Z,2.40
2022-09-05T15:02:39.166Z,2.47
2022-09-05T15:02:48.565Z,2.03
2022-09-05T15:06:36.346Z,2.17
2022-09-05T15:11:24.447Z,2.27
2022-09-05T15:12:21.291Z,2.30
2022-09-05T15:14:43.055Z,2.57
2022-09-05T15:17:10.618Z,2.47
2022-09-05T15:20:06.236Z,1.70
2022-09-05T15:22:37.445Z,1.80
2022-09-05T15:25:17.262Z,2.30
2022-09-05T15:27:46.183Z,1.90
2022-09-05T15:30:35.908Z,2.17
2022-09-05T15:33:26.381Z,1.67
2022-09-05T15:35:56.619Z,1.80
2022-09-05T15:38:26.726Z,1.93
2022-09-05T15:41:18.139Z,2.10
2022-09-05T15:43:52.877Z,2.73
2022-09-05T15:46:30.942Z,1.87
2022-09-05T15:49:04.151Z,1.90
2022-09-05T15:51:55.198Z,1.90
2022-09-05T15:54:38.381Z,2.00
2022-09-05T15:57:18.026Z,1.70
2022-09-05T16:00:00.778Z,1.90
2022-09-05T16:03:25.791Z,1.83
2022-09-05T16:10:29.344Z,2.17
2022-09-05T16:24:59.212Z,1.60
2022-09-05T16:27:54.961Z,1.57
2022-09-05T16:30:24.157Z,1.60
2022-09-05T16:32:55.892Z,1.60
2022-09-05T16:35:26.232Z,2.03
2022-09-05T16:38:14.999Z,1.73
2022-09-05T16:41:04.076Z,1.60
2022-09-05T16:43:35.099Z,1.87
2022-09-05T16:46:11.139Z,1.60
2022-09-05T16:48:43.977Z,1.50
2022-09-05T16:51:35.443Z,1.60
2022-09-05T16:54:29.236Z,1.73
2022-09-05T16:57:00.546Z,1.70
2022-09-05T16:59:30.602Z,1.83
2022-09-05T17:02:07.491Z,1.30
2022-09-05T17:05:05.145Z,1.83
2022-09-05T17:07:42.221Z,1.77
2022-09-05T17:10:36.421Z,2.00
2022-09-05T17:13:04.056Z,1.67
2022-09-05T17:15:35.506Z,1.50
2022-09-05T17:18:21.651Z,1.50
2022-09-05T17:20:55.017Z,2.03
2022-09-05T17:29:17.890Z,1.80
2022-09-05T17:29:27.607Z,1.80
2022-09-05T17:32:39.566Z,1.33
2022-09-05T17:35:44.027Z,1.60
2022-09-05T17:38:35.281Z,1.60
2022-09-05T17:41:17.951Z,1.30
2022-09-05T17:44:03.285Z,1.53
2022-09-05T17:46:34.022Z,1.53
2022-09-05T17:49:18.204Z,1.40
2022-09-05T17:51:53.086Z,1.70
2022-09-05T17:54:28.720Z,1.70
2022-09-05T17:56:55.526Z,1.40
2022-09-05T17:59:23.276Z,1.40
2022-09-05T18:02:02.367Z,1.50
2022-09-05T18:04:47.451Z,1.60
2022-09-05T18:07:26.476Z,1.87
2022-09-05T18:10:15.198Z,1.60
2022-09-05T18:13:31.755Z,1.67
2022-09-05T18:15:32.748Z,1.80
2022-09-05T18:18:08.771Z,1.90
2022-09-05T18:21:21.105Z,2.10
2022-09-05T18:24:04.466Z,2.10
2022-09-05T18:26:39.713Z,2.07
2022-09-05T18:29:30.992Z,1.80
2022-09-05T18:32:12.177Z,1.80
2022-09-05T18:34:40.793Z,1.80
2022-09-05T18:37:51.661Z,1.90
2022-09-05T18:41:18.715Z,1.57
2022-09-05T18:44:13.095Z,1.43
2022-09-05T18:47:33.012Z,1.83
2022-09-05T18:50:26.379Z,1.80
2022-09-05T18:53:09.941Z,2.00
2022-09-05T18:56:21.393Z,2.00
2022-09-05T18:59:09.499Z,1.70
2022-09-05T19:01:58.766Z,1.90
2022-09-05T19:04:40.335Z,1.43
2022-09-05T19:07:16.661Z,1.63
2022-09-05T19:10:10.842Z,1.50
2022-09-05T19:12:59.329Z,1.60
2022-09-05T19:15:31.377Z,1.90
2022-09-05T19:18:26.222Z,2.03
2022-09-05T19:21:12.316Z,1.33
2022-09-05T19:23:50.636Z,1.40
2022-09-05T19:26:17.801Z,1.50
2022-09-05T19:36:44.622Z,1.77
2022-09-05T19:36:54.777Z,1.57
2022-09-05T19:37:22.527Z,1.90
2022-09-05T19:37:28.865Z,1.80
2022-09-05T19:47:25.355Z,1.43
2022-09-05T19:47:34.564Z,1.57
2022-09-05T19:47:39.460Z,1.93
2022-09-05T19:48:35.141Z,1.60
2022-09-05T19:51:16.501Z,1.80
2022-09-05T19:54:03.849Z,1.60
2022-09-05T19:56:37.855Z,1.43
2022-09-05T19:59:18.447Z,1.70
2022-09-05T20:01:46.942Z,1.70
2022-09-05T20:04:16.608Z,1.80
2022-09-05T20:06:48.004Z,1.53
2022-09-05T20:09:19.690Z,1.90
2022-09-05T20:11:52.523Z,1.63
2022-09-05T20:14:31.568Z,1.87
2022-09-05T20:17:21.116Z,1.73
2022-09-05T20:19:48.719Z,1.83
2022-09-05T20:22:49.559Z,1.33
2022-09-05T20:25:19.839Z,1.57
2022-09-05T20:27:59.689Z,1.83
2022-09-05T20:30:35.031Z,1.50
2022-09-05T20:33:06.066Z,1.60
2022-09-05T20:40:06.829Z,1.80
2022-09-05T20:43:24.415Z,1.57
2022-09-05T20:43:27.108Z,1.40
2022-09-05T20:44:22.393Z,1.57
2022-09-05T20:53:09.736Z,1.30
2022-09-05T20:54:13.200Z,1.37
2022-09-05T20:54:18.049Z,1.53
2022-09-05T20:55:45.015Z,1.60
2022-09-05T20:58:14.522Z,1.50
2022-09-05T21:01:20.497Z,1.50
2022-09-05T21:03:45.614Z,1.70
2022-09-05T21:06:21.145Z,1.60
2022-09-05T21:08:52.308Z,1.43
2022-09-05T21:11:29.308Z,1.87
2022-09-05T21:13:57.671Z,1.87
2022-09-05T21:16:28.454Z,2.00
2022-09-05T21:18:55.368Z,2.07
2022-09-05T21:21:28.939Z,1.97
2022-09-05T21:24:26.167Z,2.00
2022-09-05T21:26:53.130Z,1.90
2022-09-05T21:29:27.343Z,2.70
2022-09-05T21:32:01.728Z,2.10
2022-09-05T21:34:31.802Z,1.90
2022-09-05T21:37:07.271Z,1.70
2022-09-05T21:39:46.757Z,2.27
2022-09-05T21:47:33.097Z,2.10
2022-09-05T21:47:42.154Z,1.80
2022-09-05T21:48:04.472Z,1.80
2022-09-05T21:50:46.456Z,2.10
2022-09-05T21:54:54.687Z,2.10
2022-09-05T21:59:30.182Z,1.90
2022-09-05T21:59:37.027Z,2.00
2022-09-05T22:01:53.171Z,1.83
2022-09-05T22:04:22.236Z,2.43
2022-09-05T22:06:49.794Z,1.53
2022-09-05T22:09:19.933Z,1.60
2022-09-05T22:11:50.576Z,1.60
2022-09-05T22:14:19.344Z,1.70
2022-09-05T22:16:47.589Z,2.20
2022-09-05T22:19:27.017Z,2.13
2022-09-05T22:22:16.434Z,2.60
2022-09-05T22:24:52.749Z,2.90
2022-09-05T22:27:20.249Z,1.90
2022-09-05T22:29:51.174Z,2.63
2022-09-05T22:32:35.032Z,3.50
2022-09-05T22:35:26.863Z,3.30
2022-09-05T22:37:59.114Z,3.20
2022-09-05T22:40:28.729Z,3.23
2022-09-05T22:43:00.216Z,3.37
2022-09-05T22:45:28.629Z,3.43
2022-09-05T22:47:55.790Z,2.90
2022-09-05T22:50:23.271Z,2.93
2022-09-05T22:52:50.137Z,2.80
2022-09-05T22:55:19.279Z,3.10
2022-09-05T22:57:46.473Z,2.83
2022-09-05T23:00:13.632Z,3.00
2022-09-05T23:02:40.504Z,3.13
2022-09-05T23:05:09.972Z,3.10
2022-09-05T23:07:37.371Z,2.90
2022-09-05T23:10:04.450Z,3.17
2022-09-05T23:12:35.593Z,3.00
2022-09-05T23:15:02.371Z,2.97
2022-09-05T23:17:29.258Z,2.53
2022-09-05T23:19:56.579Z,2.67
2022-09-05T23:22:23.343Z,3.10
2022-09-05T23:24:50.247Z,3.20
2022-09-05T23:27:17.213Z,2.80
2022-09-05T23:29:44.447Z,2.30
2022-09-05T23:32:11.202Z,2.20
2022-09-05T23:34:38.663Z,2.37
2022-09-05T23:37:08.816Z,2.43
2022-09-05T23:39:35.720Z,2.20
2022-09-05T23:42:02.753Z,2.40
2022-09-05T23:44:29.418Z,2.10
2022-09-05T23:46:56.991Z,1.93
2022-09-05T23:49:23.783Z,2.43
2022-09-05T23:51:50.446Z,2.17
2022-09-05T23:54:17.190Z,2.27
2022-09-05T23:56:44.006Z,2.00
2022-09-05T23:59:11.716Z,1.80
